Terminal Aerodrome Forecast
Issued by NWS Tulsa, OK

Home | Current Version | Previous Version | Text Only | Print | Product List | Glossary On
Versions: 1 2 3 4 5 6 7 8 9 10 11 12 13 14 15
000
FTUS44 KTSA 071120
TAFFSM
TAF
KFSM 071120Z 0712/0812 09005KT P6SM OVC050
      TEMPO 0712/0716 5SM -TSRA BKN025CB
     FM071700 18007KT P6SM VCTS BKN025CB
     FM071900 20010KT P6SM VCTS BKN035CB
     FM080400 11007KT 6SM -TSRA BKN025CB=

USA.gov is the U.S. government's official web portal to all federal, state and local government web resources and services.